Crocus, North Dakota
Current Conditions -  °F | °C
As of 10:15 AM on Monday 22 Dec 2014 (Local Time) from K06D Reporting Station
Haze Haze  
Wind Chill: -6°   Ceiling: 400
Heat Index: -2°   Visibility: 3mi
Dew Point: -2°   Wind: 7mph
Humidity: 100%   Direction: 40°NE
Pressure: 29.55"   Gusts: NA
Location:  48.8584°N, 99.1311°W
Report Text: K06D 221615Z AUTO 04006KT 3SM BR OVC004 M02/M02 A2955 RMK AO2
Loading
Personal Weather Stations






























Interactive Weather Map New forecast layout! Learn more

10-Day Weather Forecast

Advertisements
Track Severe Weather on mobile